USTRANSCOM 7639


RJTY
Yokota AFB
Fussa, JP
PAED
Elmendorf Air Force Base
Elmendorf, US

Activity Log

Date Flight Route Aircraft Duration
03/14/2019 CMB839 DAIGO Y889 OATIS OTR3 PUTER A590 HAMND SPAIR GRUUB1 B752 6h 08m

Route Details

Aircraft Information
Primary: Boeing 757-200SF
Backup: Not Available
Route Data
Distance: 3017nm
Sched. Duration: 7h 00m
Avg. Duration: 6h 08m (-92m)
Times Flown: 1
Recm'd Route: DAIGO Y889 OATIS OTR3 PUTER A590 HAMND SPAIR GRUUB1
Planned Altitude: 33,000ft
Origin Wx: RJTY 181556Z AUTO 00000KT 10SM CLR 01/M05 A3016 RMK AO2 SLPNO T00081050 FZRANO $
Dest. Wx: PAED 181556Z 00000KT 1SM -SN BR BKN003 OVC009 00/M01 A2961 RMK AO2A SLP025 P0000 T10021008 $
Notes: USTRANSCOM CONTRACT FLIGHT

Financial History
Total Freight: 47,635lbs
Average Load: 47,635lbs/flt
Fuel Used: 52,456lbs
Avg. Fuel Used: 52,456lbs/flt
Fuel Expense: $55,079
Avg. Fuel Expense: $55,079
Avg. Fuel Cost: $1.05/lbs
Total Gross Income: $94,317
Pilot Pay: $229
Total Expenses: $10,238
Total Revenue: $27,534
Average Revenue: $94,317.30